Annapolis, IN

10:18 AM EST on November 28, 2014 (GMT -0500)
KINROCKV2 | Change Station
CLOSE
Current Station
Personal Weather Station
Location: Rockville, IN
Elevation: 702 ft
Nearby Weather Stations
Active Advisory: Flood Warning Active Notice: Public Information Statement

Elev 702 ft 39.77 °N, 87.22 °W | Updated 8 seconds ago

Overcast
Overcast
25.1 °F
Feels Like 20 °F
N
4.0
Wind Variable Wind from SE
Gusts 11.0 mph

Today
High -- | Low -- °F
--% Chance of Precip.
Yesterday
High -- | Low -- °F
Precip. -- in
7:48 AM 5:25 PM
Waxing Crescent, 41% visible
Pressure 30.32 in
Visibility 7.0 miles
Clouds Mostly Cloudy 12000 ft
Windchill 20 °F
Dew Point 22 °F
Humidity 86%
Rainfall 0.00 in
Snow Depth Not available.
UV 1 out of 12
Pollen .10 out of 12
Air Quality Not available.
Flu Activity Not available.
METAR KPRG 281455Z AUTO 15011KT 7SM BKN120 M03/M05 A3032 RMK AO2 T10301054

More Conditions Fewer Conditions

Pressure 30.32 in
Visibility 7.0 miles
Clouds Mostly Cloudy 12000 ft
Windchill 20 °F
Dew Point 22 °F
Humidity 86%
Rainfall 0.00 in
Snow Depth Not available.
UV 1 out of 12
Pollen .10 out of 12
Air Quality Not available.
Flu Activity Not available.
METAR KPRG 281455Z AUTO 15011KT 7SM BKN120 M03/M05 A3032 RMK AO2 T10301054

More Conditions Fewer Conditions

10-Day Weather Forecast

Almanac

Astronomy

Nov. 28, 2014 Rise Set
Actual Time
Civil Twilight
Nautical Twilight
Astronomical Twilight
Moon
Length of Visible Light
Length of Day
Tomorrow will be .
, % of the Moon is Illuminated

Today's Extremes

State Highs State Lows

Community

WunderPhotos

Upload Photos

1,774,227 photos uploaded!

WunderBlogs® & News

Nearby

Air Quality

  Air Quality AQ Index Pollutant
Not available.

Snow Depth

Station Depth Elevation

Earthquake Activity

City Distance Mag. Time & Date
Minimum magnitude displayed is 2.5.

Coastal Water Temperatures

Place Temperature

Nearby Weather Stations